sensor_id;sensor_type;location;lat;lon;timestamp;temperature;humidity
698;DHT22;331;48.414;9.938;2023-01-15T00:01:20;7.20;99.90
698;DHT22;331;48.414;9.938;2023-01-15T00:03:49;7.20;99.90
698;DHT22;331;48.414;9.938;2023-01-15T00:06:26;7.30;99.90
698;DHT22;331;48.414;9.938;2023-01-15T00:08:57;7.30;99.90
698;DHT22;331;48.414;9.938;2023-01-15T00:11:27;7.30;99.90
698;DHT22;331;48.414;9.938;2023-01-15T00:13:54;7.20;99.90
698;DHT22;331;48.414;9.938;2023-01-15T00:16:24;7.30;99.90
698;DHT22;331;48.414;9.938;2023-01-15T00:18:52;7.30;99.90
698;DHT22;331;48.414;9.938;2023-01-15T00:21:20;7.30;99.90
698;DHT22;331;48.414;9.938;2023-01-15T00:23:57;7.20;99.90
698;DHT22;331;48.414;9.938;2023-01-15T00:26:42;7.20;99.90
698;DHT22;331;48.414;9.938;2023-01-15T00:29:30;7.30;99.90
698;DHT22;331;48.414;9.938;2023-01-15T00:32:04;7.20;99.90
698;DHT22;331;48.414;9.938;2023-01-15T00:34:32;7.30;99.90
698;DHT22;331;48.414;9.938;2023-01-15T00:37:03;7.30;99.90
698;DHT22;331;48.414;9.938;2023-01-15T00:39:38;7.30;99.90
698;DHT22;331;48.414;9.938;2023-01-15T00:42:10;7.30;99.90
698;DHT22;331;48.414;9.938;2023-01-15T00:50:11;7.30;99.90
698;DHT22;331;48.414;9.938;2023-01-15T00:52:49;7.40;99.90
698;DHT22;331;48.414;9.938;2023-01-15T00:55:21;7.30;99.90
698;DHT22;331;48.414;9.938;2023-01-15T00:57:52;7.40;99.90
698;DHT22;331;48.414;9.938;2023-01-15T01:05:49;7.30;99.90
698;DHT22;331;48.414;9.938;2023-01-15T01:08:26;7.40;99.90
698;DHT22;331;48.414;9.938;2023-01-15T01:11:03;7.40;99.90
698;DHT22;331;48.414;9.938;2023-01-15T01:16:26;7.40;99.90
698;DHT22;331;48.414;9.938;2023-01-15T01:19:08;7.40;99.90
698;DHT22;331;48.414;9.938;2023-01-15T01:21:46;7.40;99.90
698;DHT22;331;48.414;9.938;2023-01-15T01:24:18;7.40;99.90
698;DHT22;331;48.414;9.938;2023-01-15T01:27:06;7.40;99.90
698;DHT22;331;48.414;9.938;2023-01-15T01:29:38;7.40;99.90
698;DHT22;331;48.414;9.938;2023-01-15T01:40:44;7.40;99.90
698;DHT22;331;48.414;9.938;2023-01-15T01:43:18;7.40;99.90
698;DHT22;331;48.414;9.938;2023-01-15T01:45:52;7.40;99.90
698;DHT22;331;48.414;9.938;2023-01-15T01:48:25;7.50;99.90
698;DHT22;331;48.414;9.938;2023-01-15T01:51:01;7.50;99.90
698;DHT22;331;48.414;9.938;2023-01-15T01:53:37;7.40;99.90
698;DHT22;331;48.414;9.938;2023-01-15T01:56:22;7.40;99.90
698;DHT22;331;48.414;9.938;2023-01-15T01:58:57;7.40;99.90
698;DHT22;331;48.414;9.938;2023-01-15T02:01:30;7.50;99.90
698;DHT22;331;48.414;9.938;2023-01-15T02:04:13;7.40;99.90
698;DHT22;331;48.414;9.938;2023-01-15T02:06:49;7.50;99.90
698;DHT22;331;48.414;9.938;2023-01-15T02:09:25;7.50;99.90
698;DHT22;331;48.414;9.938;2023-01-15T02:12:05;7.50;99.90
698;DHT22;331;48.414;9.938;2023-01-15T02:14:53;7.50;99.90
698;DHT22;331;48.414;9.938;2023-01-15T02:17:37;7.50;99.90
698;DHT22;331;48.414;9.938;2023-01-15T02:20:21;7.50;99.90
698;DHT22;331;48.414;9.938;2023-01-15T02:26:01;7.50;99.90
698;DHT22;331;48.414;9.938;2023-01-15T02:31:34;7.60;99.90
698;DHT22;331;48.414;9.938;2023-01-15T02:34:51;7.50;99.90
698;DHT22;331;48.414;9.938;2023-01-15T02:45:45;7.60;99.90
698;DHT22;331;48.414;9.938;2023-01-15T04:09:48;8.00;99.90
698;DHT22;331;48.414;9.938;2023-01-15T04:14:59;8.00;99.90
698;DHT22;331;48.414;9.938;2023-01-15T04:44:49;8.20;99.90
698;DHT22;331;48.414;9.938;2023-01-15T05:11:50;8.30;99.90
698;DHT22;331;48.414;9.938;2023-01-15T05:23:00;8.30;99.90
698;DHT22;331;48.414;9.938;2023-01-15T06:09:05;8.60;99.90
698;DHT22;331;48.414;9.938;2023-01-15T06:14:30;8.60;99.90
698;DHT22;331;48.414;9.938;2023-01-15T06:41:24;8.60;99.90
698;DHT22;331;48.414;9.938;2023-01-15T06:44:09;8.60;99.90
698;DHT22;331;48.414;9.938;2023-01-15T06:46:56;8.60;99.90
698;DHT22;331;48.414;9.938;2023-01-15T06:49:40;8.70;99.90
698;DHT22;331;48.414;9.938;2023-01-15T06:52:07;8.70;99.90
698;DHT22;331;48.414;9.938;2023-01-15T06:54:35;8.60;99.90
698;DHT22;331;48.414;9.938;2023-01-15T06:57:03;8.70;99.90
698;DHT22;331;48.414;9.938;2023-01-15T06:59:39;8.60;99.90
698;DHT22;331;48.414;9.938;2023-01-15T07:02:05;8.70;99.90
698;DHT22;331;48.414;9.938;2023-01-15T07:04:33;8.70;99.90
698;DHT22;331;48.414;9.938;2023-01-15T07:09:39;8.60;99.90
698;DHT22;331;48.414;9.938;2023-01-15T07:12:07;8.70;99.90
698;DHT22;331;48.414;9.938;2023-01-15T07:19:58;8.60;99.90
698;DHT22;331;48.414;9.938;2023-01-15T07:22:30;8.60;99.90
698;DHT22;331;48.414;9.938;2023-01-15T07:24:57;8.60;99.90
698;DHT22;331;48.414;9.938;2023-01-15T07:27:27;8.60;99.90
698;DHT22;331;48.414;9.938;2023-01-15T07:29:54;8.60;99.90
698;DHT22;331;48.414;9.938;2023-01-15T07:32:25;8.60;99.90
698;DHT22;331;48.414;9.938;2023-01-15T07:34:56;8.60;99.90
698;DHT22;331;48.414;9.938;2023-01-15T07:37:23;8.60;99.90
698;DHT22;331;48.414;9.938;2023-01-15T07:39:51;8.60;99.90
698;DHT22;331;48.414;9.938;2023-01-15T07:42:19;8.60;99.90
698;DHT22;331;48.414;9.938;2023-01-15T07:45:07;8.60;99.90
698;DHT22;331;48.414;9.938;2023-01-15T07:47:52;8.60;99.90
698;DHT22;331;48.414;9.938;2023-01-15T07:50:37;8.60;99.90
698;DHT22;331;48.414;9.938;2023-01-15T07:53:04;8.60;99.90
698;DHT22;331;48.414;9.938;2023-01-15T07:55:34;8.60;99.90
698;DHT22;331;48.414;9.938;2023-01-15T07:58:02;8.60;99.90
698;DHT22;331;48.414;9.938;2023-01-15T08:00:31;8.60;99.90
698;DHT22;331;48.414;9.938;2023-01-15T08:02:58;8.60;99.90
698;DHT22;331;48.414;9.938;2023-01-15T08:05:27;8.60;99.90
698;DHT22;331;48.414;9.938;2023-01-15T08:07:54;8.60;99.90
698;DHT22;331;48.414;9.938;2023-01-15T08:10:22;8.60;99.90
698;DHT22;331;48.414;9.938;2023-01-15T08:12:52;8.60;99.90
698;DHT22;331;48.414;9.938;2023-01-15T08:15:39;8.60;99.90
698;DHT22;331;48.414;9.938;2023-01-15T08:18:08;8.50;99.90
698;DHT22;331;48.414;9.938;2023-01-15T08:20:35;8.50;99.90
698;DHT22;331;48.414;9.938;2023-01-15T08:23:04;8.40;99.90
698;DHT22;331;48.414;9.938;2023-01-15T08:25:31;8.40;99.90
698;DHT22;331;48.414;9.938;2023-01-15T08:27:59;8.30;99.90
698;DHT22;331;48.414;9.938;2023-01-15T08:30:28;8.30;99.90
698;DHT22;331;48.414;9.938;2023-01-15T08:32:59;8.30;99.90
698;DHT22;331;48.414;9.938;2023-01-15T08:35:28;8.20;99.90
698;DHT22;331;48.414;9.938;2023-01-15T08:38:04;8.20;99.90
698;DHT22;331;48.414;9.938;2023-01-15T08:40:32;8.20;99.90
698;DHT22;331;48.414;9.938;2023-01-15T08:43:03;8.10;99.90
698;DHT22;331;48.414;9.938;2023-01-15T09:08:42;7.80;99.90
698;DHT22;331;48.414;9.938;2023-01-15T09:11:09;7.80;99.90
698;DHT22;331;48.414;9.938;2023-01-15T09:13:37;7.80;99.90
698;DHT22;331;48.414;9.938;2023-01-15T09:16:06;7.80;99.90
698;DHT22;331;48.414;9.938;2023-01-15T09:18:35;7.80;99.90
698;DHT22;331;48.414;9.938;2023-01-15T09:21:03;7.70;99.90
698;DHT22;331;48.414;9.938;2023-01-15T09:23:31;7.70;99.90
698;DHT22;331;48.414;9.938;2023-01-15T09:26:01;7.70;99.90
698;DHT22;331;48.414;9.938;2023-01-15T09:37:23;7.60;99.90
698;DHT22;331;48.414;9.938;2023-01-15T09:39:50;7.50;99.90
698;DHT22;331;48.414;9.938;2023-01-15T09:42:28;7.50;99.90
698;DHT22;331;48.414;9.938;2023-01-15T09:45:05;7.50;99.90
698;DHT22;331;48.414;9.938;2023-01-15T09:47:38;7.50;99.90
698;DHT22;331;48.414;9.938;2023-01-15T09:50:17;7.50;99.90
698;DHT22;331;48.414;9.938;2023-01-15T09:52:57;7.40;99.90
698;DHT22;331;48.414;9.938;2023-01-15T10:17:43;7.20;99.90
698;DHT22;331;48.414;9.938;2023-01-15T10:33:39;7.10;99.90
698;DHT22;331;48.414;9.938;2023-01-15T10:36:14;7.20;99.90
698;DHT22;331;48.414;9.938;2023-01-15T10:39:43;7.10;99.90
698;DHT22;331;48.414;9.938;2023-01-15T10:42:23;7.10;99.90
698;DHT22;331;48.414;9.938;2023-01-15T10:45:54;7.10;99.90
698;DHT22;331;48.414;9.938;2023-01-15T10:49:05;7.10;99.90
698;DHT22;331;48.414;9.938;2023-01-15T10:51:47;7.10;99.90
698;DHT22;331;48.414;9.938;2023-01-15T12:52:17;6.40;99.90
698;DHT22;331;48.414;9.938;2023-01-15T12:54:50;6.40;99.90
698;DHT22;331;48.414;9.938;2023-01-15T13:02:52;6.40;99.90
698;DHT22;331;48.414;9.938;2023-01-15T13:08:30;6.40;99.90
698;DHT22;331;48.414;9.938;2023-01-15T13:11:30;6.30;99.90
698;DHT22;331;48.414;9.938;2023-01-15T13:14:02;6.30;99.90
698;DHT22;331;48.414;9.938;2023-01-15T13:19:41;6.30;99.90
698;DHT22;331;48.414;9.938;2023-01-15T13:22:18;6.30;99.90
698;DHT22;331;48.414;9.938;2023-01-15T13:34:55;6.20;99.90
698;DHT22;331;48.414;9.938;2023-01-15T13:44:21;6.10;99.90
698;DHT22;331;48.414;9.938;2023-01-15T13:46:58;6.10;99.90
698;DHT22;331;48.414;9.938;2023-01-15T13:49:44;6.10;99.90
698;DHT22;331;48.414;9.938;2023-01-15T13:52:20;6.10;99.90
698;DHT22;331;48.414;9.938;2023-01-15T14:04:39;6.00;99.90
698;DHT22;331;48.414;9.938;2023-01-15T14:33:16;5.90;99.90
698;DHT22;331;48.414;9.938;2023-01-15T14:35:48;5.80;99.90
698;DHT22;331;48.414;9.938;2023-01-15T14:39:27;5.80;99.90
698;DHT22;331;48.414;9.938;2023-01-15T14:41:59;5.80;99.90
698;DHT22;331;48.414;9.938;2023-01-15T16:11:23;5.40;99.90
698;DHT22;331;48.414;9.938;2023-01-15T16:14:31;5.30;99.90
698;DHT22;331;48.414;9.938;2023-01-15T16:20:38;5.30;99.90
698;DHT22;331;48.414;9.938;2023-01-15T16:23:17;5.30;99.90
698;DHT22;331;48.414;9.938;2023-01-15T16:25:56;5.30;99.90
698;DHT22;331;48.414;9.938;2023-01-15T16:28:50;5.30;99.90
698;DHT22;331;48.414;9.938;2023-01-15T16:31:24;5.30;99.90
698;DHT22;331;48.414;9.938;2023-01-15T16:33:53;5.30;99.90
698;DHT22;331;48.414;9.938;2023-01-15T16:36:21;5.30;99.90
698;DHT22;331;48.414;9.938;2023-01-15T16:38:49;5.30;99.90
698;DHT22;331;48.414;9.938;2023-01-15T16:41:17;5.30;99.90
698;DHT22;331;48.414;9.938;2023-01-15T16:43:54;5.20;99.90
698;DHT22;331;48.414;9.938;2023-01-15T16:46:25;5.20;99.90
698;DHT22;331;48.414;9.938;2023-01-15T16:49:17;5.20;99.90
698;DHT22;331;48.414;9.938;2023-01-15T16:51:48;5.20;99.90
698;DHT22;331;48.414;9.938;2023-01-15T16:57:03;5.20;99.90
698;DHT22;331;48.414;9.938;2023-01-15T17:02:22;5.10;99.90
698;DHT22;331;48.414;9.938;2023-01-15T17:04:54;5.10;99.90
698;DHT22;331;48.414;9.938;2023-01-15T17:07:30;5.10;99.90
698;DHT22;331;48.414;9.938;2023-01-15T17:09:59;5.10;99.90
698;DHT22;331;48.414;9.938;2023-01-15T17:12:27;5.10;99.90
698;DHT22;331;48.414;9.938;2023-01-15T17:15:06;5.10;99.90
698;DHT22;331;48.414;9.938;2023-01-15T17:20:25;5.00;99.90
698;DHT22;331;48.414;9.938;2023-01-15T17:41:09;4.90;99.90
698;DHT22;331;48.414;9.938;2023-01-15T17:43:37;4.90;99.90
698;DHT22;331;48.414;9.938;2023-01-15T17:46:04;4.90;99.90
698;DHT22;331;48.414;9.938;2023-01-15T17:48:37;4.90;99.90
698;DHT22;331;48.414;9.938;2023-01-15T17:51:05;4.90;99.90
698;DHT22;331;48.414;9.938;2023-01-15T17:53:35;4.80;99.90
698;DHT22;331;48.414;9.938;2023-01-15T17:56:03;4.80;99.90
698;DHT22;331;48.414;9.938;2023-01-15T17:58:49;4.80;99.90
698;DHT22;331;48.414;9.938;2023-01-15T18:01:35;4.80;99.90
698;DHT22;331;48.414;9.938;2023-01-15T18:04:22;4.80;99.90
698;DHT22;331;48.414;9.938;2023-01-15T18:07:09;4.80;99.90
698;DHT22;331;48.414;9.938;2023-01-15T18:09:37;4.70;99.90
698;DHT22;331;48.414;9.938;2023-01-15T18:12:07;4.80;99.90
698;DHT22;331;48.414;9.938;2023-01-15T18:14:38;4.70;99.90
698;DHT22;331;48.414;9.938;2023-01-15T18:17:05;4.70;99.90
698;DHT22;331;48.414;9.938;2023-01-15T18:19:32;4.70;99.90
698;DHT22;331;48.414;9.938;2023-01-15T18:22:00;4.70;99.90
698;DHT22;331;48.414;9.938;2023-01-15T18:24:27;4.70;99.90
698;DHT22;331;48.414;9.938;2023-01-15T18:26:54;4.70;99.90
698;DHT22;331;48.414;9.938;2023-01-15T18:29:21;4.70;99.90
698;DHT22;331;48.414;9.938;2023-01-15T18:31:54;4.60;99.90
698;DHT22;331;48.414;9.938;2023-01-15T18:34:37;4.60;99.90
698;DHT22;331;48.414;9.938;2023-01-15T18:37:08;4.60;99.90
698;DHT22;331;48.414;9.938;2023-01-15T18:39:39;4.60;99.90
698;DHT22;331;48.414;9.938;2023-01-15T18:42:28;4.60;99.90
698;DHT22;331;48.414;9.938;2023-01-15T18:45:12;4.60;99.90
698;DHT22;331;48.414;9.938;2023-01-15T18:48:00;4.60;99.90
698;DHT22;331;48.414;9.938;2023-01-15T18:50:28;4.50;99.90
698;DHT22;331;48.414;9.938;2023-01-15T18:53:02;4.50;99.90
698;DHT22;331;48.414;9.938;2023-01-15T18:55:29;4.50;99.90
698;DHT22;331;48.414;9.938;2023-01-15T18:57:58;4.50;99.90
698;DHT22;331;48.414;9.938;2023-01-15T19:03:08;4.50;99.90
698;DHT22;331;48.414;9.938;2023-01-15T19:08:06;4.40;99.90
698;DHT22;331;48.414;9.938;2023-01-15T19:10:38;4.40;99.90
698;DHT22;331;48.414;9.938;2023-01-15T19:13:06;4.40;99.90
698;DHT22;331;48.414;9.938;2023-01-15T19:15:33;4.40;99.90
698;DHT22;331;48.414;9.938;2023-01-15T19:18:19;4.40;99.90
698;DHT22;331;48.414;9.938;2023-01-15T19:21:07;4.40;99.90
698;DHT22;331;48.414;9.938;2023-01-15T19:23:35;4.40;99.90
698;DHT22;331;48.414;9.938;2023-01-15T19:26:05;4.30;99.90
698;DHT22;331;48.414;9.938;2023-01-15T19:28:37;4.30;99.90
698;DHT22;331;48.414;9.938;2023-01-15T19:31:05;4.30;99.90
698;DHT22;331;48.414;9.938;2023-01-15T19:33:52;4.30;99.90
698;DHT22;331;48.414;9.938;2023-01-15T19:36:23;4.30;99.90
698;DHT22;331;48.414;9.938;2023-01-15T19:38:51;4.30;99.90
698;DHT22;331;48.414;9.938;2023-01-15T19:41:21;4.20;99.90
698;DHT22;331;48.414;9.938;2023-01-15T19:44:12;4.20;99.90
698;DHT22;331;48.414;9.938;2023-01-15T19:46:58;4.20;99.90
698;DHT22;331;48.414;9.938;2023-01-15T19:49:45;4.20;99.90
698;DHT22;331;48.414;9.938;2023-01-15T19:52:30;4.20;99.90
698;DHT22;331;48.414;9.938;2023-01-15T19:55:07;4.20;99.90
698;DHT22;331;48.414;9.938;2023-01-15T19:57:35;4.20;99.90
698;DHT22;331;48.414;9.938;2023-01-15T20:00:02;4.20;99.90
698;DHT22;331;48.414;9.938;2023-01-15T20:02:31;4.20;99.90
698;DHT22;331;48.414;9.938;2023-01-15T20:04:59;4.20;99.90
698;DHT22;331;48.414;9.938;2023-01-15T20:07:27;4.20;99.90
698;DHT22;331;48.414;9.938;2023-01-15T20:09:54;4.10;99.90
698;DHT22;331;48.414;9.938;2023-01-15T20:12:21;4.10;99.90
698;DHT22;331;48.414;9.938;2023-01-15T20:15:06;4.10;99.90
698;DHT22;331;48.414;9.938;2023-01-15T20:17:34;4.10;99.90
698;DHT22;331;48.414;9.938;2023-01-15T20:20:02;4.10;99.90
698;DHT22;331;48.414;9.938;2023-01-15T20:22:30;4.10;99.90
698;DHT22;331;48.414;9.938;2023-01-15T20:24:59;4.10;99.90
698;DHT22;331;48.414;9.938;2023-01-15T20:27:30;4.10;99.90
698;DHT22;331;48.414;9.938;2023-01-15T20:29:59;4.00;99.90
698;DHT22;331;48.414;9.938;2023-01-15T20:32:27;4.00;99.90
698;DHT22;331;48.414;9.938;2023-01-15T20:34:54;4.10;99.90
698;DHT22;331;48.414;9.938;2023-01-15T20:37:23;4.00;99.90
698;DHT22;331;48.414;9.938;2023-01-15T20:39:50;4.00;99.90
698;DHT22;331;48.414;9.938;2023-01-15T20:42:19;4.00;99.90
698;DHT22;331;48.414;9.938;2023-01-15T20:45:04;4.00;99.90
698;DHT22;331;48.414;9.938;2023-01-15T20:47:42;4.00;99.90
698;DHT22;331;48.414;9.938;2023-01-15T20:50:27;3.90;99.90
698;DHT22;331;48.414;9.938;2023-01-15T21:10:28;3.90;99.90
698;DHT22;331;48.414;9.938;2023-01-15T21:12:56;3.80;99.90
698;DHT22;331;48.414;9.938;2023-01-15T21:15:26;3.80;99.90
698;DHT22;331;48.414;9.938;2023-01-15T21:17:54;3.80;99.90
698;DHT22;331;48.414;9.938;2023-01-15T21:20:22;3.80;99.90
698;DHT22;331;48.414;9.938;2023-01-15T21:22:52;3.80;99.90
698;DHT22;331;48.414;9.938;2023-01-15T21:25:22;3.80;99.90
698;DHT22;331;48.414;9.938;2023-01-15T21:27:54;3.80;99.90
698;DHT22;331;48.414;9.938;2023-01-15T21:30:22;3.80;99.90
698;DHT22;331;48.414;9.938;2023-01-15T21:32:50;3.80;99.90
698;DHT22;331;48.414;9.938;2023-01-15T21:35:18;3.70;99.90
698;DHT22;331;48.414;9.938;2023-01-15T21:37:45;3.70;99.90
698;DHT22;331;48.414;9.938;2023-01-15T21:40:13;3.80;99.90
698;DHT22;331;48.414;9.938;2023-01-15T21:42:41;3.70;99.90
698;DHT22;331;48.414;9.938;2023-01-15T21:45:27;3.80;99.90
698;DHT22;331;48.414;9.938;2023-01-15T21:47:55;3.80;99.90
698;DHT22;331;48.414;9.938;2023-01-15T21:50:22;3.80;99.90
698;DHT22;331;48.414;9.938;2023-01-15T21:52:50;3.70;99.90
